Glovertown, Canada
Current Conditions -  °F | °C
As of 11:00 AM on Thursday 23 Oct 2014 (Local Time) from CYQX Reporting Station
Broken Clouds Broken Clouds  
Wind Chill: 42°   Ceiling: 26000
Heat Index: 45°   Visibility: 20mi
Dew Point: 39°   Wind: 5mph
Humidity: 81%   Direction: 200°SSW
Pressure: 30.39"   Gusts: NA
Location:  48.67°N, 54.05°W
Report Text: CYQX 231300Z 20004KT 20SM FEW080 BKN260 07/04 A3039 RMK AC1CI6 SC TR SLP295
Loading
Personal Weather Stations






























Interactive Weather Map
Tropical Storm Tracking
New forecast layout! Learn more

10-Day Weather Forecast

Advertisements
Track Severe Weather on mobile